Time;durP1;ratioP1;P1;durP2;ratioP2;P2;SDS_P1;SDS_P2;PMS_P1;PMS_P2;Temp;Humidity;BMP_temperature;BMP_pressure;BME280_temperature;BME280_humidity;BME280_pressure;Samples;Min_cycle;Max_cycle;Signal;HPM_P1;HPM_P2
2022/07/30 00:01:39;;;;;;;9.20;7.00;;;18.20;74.80;;;;;;5094746;28;20162;-86
2022/07/30 00:04:06;;;;;;;12.90;6.80;;;18.20;73.70;;;;;;5094079;28;20285;-88
2022/07/30 00:06:32;;;;;;;12.00;6.80;;;18.10;74.90;;;;;;5078093;28;20605;-86
2022/07/30 00:08:57;;;;;;;10.10;6.13;;;18.00;80.50;;;;;;5077067;28;20201;-86
2022/07/30 00:11:23;;;;;;;12.90;6.90;;;18.10;81.50;;;;;;5113585;28;20693;-84
2022/07/30 00:13:52;;;;;;;14.30;7.10;;;18.10;81.00;;;;;;5097603;28;20186;-86
2022/07/30 00:16:18;;;;;;;11.97;7.13;;;18.10;82.00;;;;;;5077290;28;20209;-86
2022/07/30 00:18:44;;;;;;;13.47;6.70;;;18.20;78.70;;;;;;5093720;28;20172;-82
2022/07/30 00:21:10;;;;;;;14.63;6.90;;;18.10;79.00;;;;;;5076823;28;20209;-81
2022/07/30 00:23:36;;;;;;;9.40;6.83;;;18.20;80.50;;;;;;5077322;28;20663;-85
2022/07/30 00:26:02;;;;;;;12.33;6.37;;;18.40;77.90;;;;;;5077233;28;20186;-87
2022/07/30 00:28:27;;;;;;;9.37;6.40;;;18.40;72.90;;;;;;5073957;28;20212;-81
2022/07/30 00:30:53;;;;;;;12.13;7.10;;;18.30;73.20;;;;;;5052803;28;20181;-82
2022/07/30 00:33:19;;;;;;;11.77;7.23;;;18.30;73.10;;;;;;5066789;28;20747;-82
2022/07/30 00:35:45;;;;;;;11.97;7.23;;;18.30;74.00;;;;;;5057666;28;20193;-86
2022/07/30 00:38:16;;;;;;;11.93;8.13;;;18.30;74.30;;;;;;5037871;28;20263;-85
2022/07/30 00:40:42;;;;;;;11.90;9.30;;;18.20;75.10;;;;;;5054435;28;20269;-83
2022/07/30 00:43:12;;;;;;;15.27;10.00;;;18.30;74.00;;;;;;5036444;28;20645;-81
2022/07/30 00:45:38;;;;;;;12.20;8.97;;;18.40;73.70;;;;;;5037049;28;20197;-85
2022/07/30 00:48:04;;;;;;;15.97;10.27;;;18.40;71.90;;;;;;5039620;28;20226;-85
2022/07/30 00:50:30;;;;;;;16.33;11.00;;;18.50;68.40;;;;;;5040678;28;20185;-86
2022/07/30 00:52:56;;;;;;;15.33;10.53;;;18.70;65.30;;;;;;5058497;28;20173;-86
2022/07/30 00:55:22;;;;;;;15.33;10.87;;;18.60;64.10;;;;;;5040574;28;20579;-86
2022/07/30 00:57:47;;;;;;;15.00;10.50;;;18.70;61.80;;;;;;5040372;28;20215;-81
2022/07/30 01:00:15;;;;;;;16.60;10.47;;;18.70;59.70;;;;;;5039835;28;20177;-85
2022/07/30 01:02:40;;;;;;;17.10;9.63;;;18.80;60.10;;;;;;5040378;28;20240;-82
2022/07/30 01:05:07;;;;;;;14.63;8.67;;;18.80;57.40;;;;;;5041053;28;20184;-84
2022/07/30 01:07:33;;;;;;;15.67;8.70;;;18.70;57.40;;;;;;5039797;28;20180;-84
2022/07/30 01:09:58;;;;;;;12.30;8.90;;;18.70;58.60;;;;;;5039861;28;20238;-84
2022/07/30 01:12:26;;;;;;;14.40;9.03;;;18.60;57.40;;;;;;5040072;28;20177;-86
2022/07/30 01:14:52;;;;;;;12.10;9.00;;;18.70;53.40;;;;;;5057689;28;20204;-84
2022/07/30 01:17:19;;;;;;;13.50;8.70;;;18.60;54.00;;;;;;5039926;28;20263;-84
2022/07/30 01:19:47;;;;;;;14.17;9.00;;;18.60;56.90;;;;;;5039542;28;20235;-86
2022/07/30 01:22:25;;;;;;;12.67;8.60;;;18.60;57.60;;;;;;5056900;28;20618;-85
2022/07/30 01:25:07;;;;;;;10.27;8.37;;;18.50;59.30;;;;;;5040114;28;20283;-82
2022/07/30 01:27:39;;;;;;;11.83;8.33;;;18.40;62.80;;;;;;5057410;28;20168;-83
2022/07/30 01:30:07;;;;;;;12.67;8.87;;;18.50;61.80;;;;;;5074318;28;20181;-84
2022/07/30 01:32:37;;;;;;;12.57;8.57;;;18.60;57.70;;;;;;5059041;28;20755;-85
2022/07/30 01:35:05;;;;;;;13.80;8.37;;;18.80;52.90;;;;;;5077834;28;20227;-86
2022/07/30 01:37:33;;;;;;;13.07;9.00;;;18.80;51.60;;;;;;5059007;28;20189;-84
2022/07/30 01:39:59;;;;;;;16.03;9.33;;;18.80;48.90;;;;;;5077228;28;20181;-86
2022/07/30 01:42:27;;;;;;;15.53;10.17;;;18.80;48.60;;;;;;5059417;28;20173;-86
2022/07/30 01:44:55;;;;;;;17.33;10.27;;;18.60;51.10;;;;;;5059580;28;20238;-86
2022/07/30 01:47:24;;;;;;;14.23;9.53;;;18.60;51.00;;;;;;5059572;28;20168;-85
2022/07/30 01:49:52;;;;;;;14.47;10.07;;;18.50;52.70;;;;;;5076191;28;20191;-83
2022/07/30 01:52:19;;;;;;;16.20;9.97;;;18.40;55.80;;;;;;5072885;28;20157;-83
2022/07/30 01:54:49;;;;;;;13.13;9.13;;;18.30;57.50;;;;;;5070103;28;20219;-86
2022/07/30 01:57:19;;;;;;;17.53;10.53;;;18.20;59.90;;;;;;5077862;28;20166;-82
2022/07/30 01:59:49;;;;;;;15.40;9.87;;;18.10;62.40;;;;;;5075885;28;20259;-83
2022/07/30 02:02:15;;;;;;;14.93;10.00;;;18.10;64.20;;;;;;5094618;28;20168;-80
2022/07/30 02:04:42;;;;;;;14.43;10.90;;;18.00;66.20;;;;;;5100432;28;20149;-86
2022/07/30 02:07:33;;;;;;;14.47;10.40;;;17.90;70.70;;;;;;5081926;28;20172;-84
2022/07/30 02:10:25;;;;;;;15.70;10.63;;;17.90;72.90;;;;;;5097314;28;20171;-82
2022/07/30 02:12:56;;;;;;;13.90;10.87;;;17.80;75.20;;;;;;5078528;28;20251;-84
2022/07/30 02:16:05;;;;;;;13.30;9.43;;;17.70;76.90;;;;;;5092536;28;20193;-81
2022/07/30 02:18:55;;;;;;;15.30;9.27;;;17.70;79.30;;;;;;5028768;28;20541;-81
2022/07/30 02:21:28;;;;;;;12.13;9.87;;;17.70;80.40;;;;;;5073515;28;20184;-81
2022/07/30 02:23:56;;;;;;;18.83;9.53;;;17.60;81.60;;;;;;5100176;28;20164;-80
2022/07/30 02:26:26;;;;;;;14.03;9.83;;;17.90;80.10;;;;;;5079249;28;20172;-84
2022/07/30 02:28:59;;;;;;;11.37;10.20;;;17.80;75.30;;;;;;5087807;28;20179;-80
2022/07/30 02:31:28;;;;;;;14.73;10.50;;;17.80;76.10;;;;;;5060527;28;20181;-81
2022/07/30 02:33:58;;;;;;;15.60;10.50;;;17.70;75.60;;;;;;5075989;28;20533;-85
2022/07/30 02:36:26;;;;;;;13.30;10.97;;;17.80;73.00;;;;;;5058075;28;20209;-81
2022/07/30 02:38:54;;;;;;;17.10;11.17;;;17.80;70.60;;;;;;5076290;28;20169;-85
2022/07/30 02:41:22;;;;;;;17.77;11.57;;;17.70;72.00;;;;;;5089011;28;20156;-85
2022/07/30 02:43:50;;;;;;;14.27;11.80;;;17.60;73.70;;;;;;5081637;28;20157;-81
2022/07/30 02:46:18;;;;;;;20.20;12.50;;;17.60;77.60;;;;;;5097581;28;20677;-83
2022/07/30 02:49:18;;;;;;;19.57;12.53;;;17.60;78.60;;;;;;5091632;28;20176;-83
2022/07/30 02:51:47;;;;;;;12.40;11.17;;;17.60;77.60;;;;;;5065441;28;20167;-83
2022/07/30 02:54:15;;;;;;;15.00;10.77;;;17.60;76.10;;;;;;5086850;28;20160;-80
2022/07/30 02:56:42;;;;;;;14.93;11.57;;;17.50;80.00;;;;;;5091576;28;20204;-86
2022/07/30 02:59:11;;;;;;;16.27;12.50;;;17.50;81.10;;;;;;5076542;28;20164;-81
2022/07/30 03:01:37;;;;;;;18.07;12.00;;;17.60;81.20;;;;;;5063318;28;20188;-80
2022/07/30 03:04:05;;;;;;;20.93;12.87;;;17.60;78.90;;;;;;5093635;28;20177;-82
2022/07/30 03:06:32;;;;;;;18.63;13.70;;;17.60;76.50;;;;;;5093241;28;20155;-80
2022/07/30 03:09:00;;;;;;;19.37;13.67;;;17.60;75.70;;;;;;5078053;28;20216;-83
2022/07/30 03:11:28;;;;;;;15.80;13.90;;;17.60;75.70;;;;;;5074531;28;20686;-84
2022/07/30 03:13:55;;;;;;;18.03;13.20;;;17.60;77.00;;;;;;5059843;28;20164;-84
2022/07/30 03:16:25;;;;;;;15.70;13.20;;;17.70;76.90;;;;;;5063340;28;20577;-84
2022/07/30 03:18:55;;;;;;;15.80;13.07;;;17.60;79.60;;;;;;5076916;28;20160;-85
2022/07/30 03:21:26;;;;;;;18.57;13.30;;;17.70;80.00;;;;;;5059576;28;20194;-84
2022/07/30 03:23:55;;;;;;;17.90;14.07;;;17.70;79.10;;;;;;5058686;28;20239;-85
2022/07/30 03:26:24;;;;;;;19.37;14.87;;;17.80;74.70;;;;;;5059315;28;20595;-81
2022/07/30 03:28:50;;;;;;;19.30;15.30;;;17.80;70.40;;;;;;5057385;28;20588;-82
2022/07/30 03:31:16;;;;;;;19.83;15.87;;;17.70;70.90;;;;;;5057590;28;20177;-87
2022/07/30 03:33:42;;;;;;;19.00;16.80;;;17.60;74.10;;;;;;5065802;28;20183;-84
2022/07/30 03:36:11;;;;;;;22.27;17.40;;;17.50;75.90;;;;;;5088963;28;20301;-83
2022/07/30 03:38:41;;;;;;;23.67;17.27;;;17.50;78.90;;;;;;5059715;28;20185;-84
2022/07/30 03:41:07;;;;;;;22.23;18.53;;;17.40;82.70;;;;;;5057034;28;20206;-83
2022/07/30 03:43:34;;;;;;;24.03;20.17;;;17.30;83.90;;;;;;5058491;28;20259;-86
2022/07/30 03:46:02;;;;;;;27.40;20.87;;;17.30;84.30;;;;;;5058009;28;20252;-86
2022/07/30 03:48:29;;;;;;;26.60;21.77;;;17.30;85.70;;;;;;5057474;28;20177;-86
2022/07/30 03:50:55;;;;;;;28.20;21.97;;;17.30;84.70;;;;;;5057220;28;20527;-86
2022/07/30 03:53:24;;;;;;;29.47;23.07;;;17.20;85.90;;;;;;5055989;28;20168;-82
2022/07/30 03:55:51;;;;;;;28.60;23.70;;;17.30;86.50;;;;;;5075645;28;20667;-83
2022/07/30 03:58:17;;;;;;;29.17;23.67;;;17.10;88.80;;;;;;5074628;28;20172;-85
2022/07/30 04:00:47;;;;;;;25.60;22.87;;;17.20;90.40;;;;;;5089487;28;20171;-82
2022/07/30 04:03:23;;;;;;;26.60;19.83;;;17.10;90.70;;;;;;5077742;28;20168;-83
2022/07/30 04:05:48;;;;;;;22.97;19.97;;;17.10;91.80;;;;;;5079106;28;20652;-81
2022/07/30 04:08:14;;;;;;;20.70;16.07;;;17.10;92.00;;;;;;5096392;28;20167;-85
2022/07/30 04:10:39;;;;;;;21.90;18.43;;;17.20;90.10;;;;;;5095828;28;20163;-83
2022/07/30 04:13:07;;;;;;;22.47;19.40;;;17.30;87.00;;;;;;5076205;28;20634;-82
2022/07/30 04:15:43;;;;;;;24.10;21.50;;;17.30;85.80;;;;;;5079060;28;20195;-85
2022/07/30 04:18:12;;;;;;;23.97;20.37;;;17.40;85.40;;;;;;5095650;28;20195;-84
2022/07/30 04:20:43;;;;;;;25.27;19.67;;;17.40;83.20;;;;;;5075733;28;20242;-84
2022/07/30 04:23:10;;;;;;;20.37;17.03;;;17.50;81.50;;;;;;5094156;28;20189;-82
2022/07/30 04:25:37;;;;;;;22.37;19.93;;;17.40;82.70;;;;;;5094119;28;20170;-85
2022/07/30 04:28:04;;;;;;;23.47;19.30;;;17.40;81.00;;;;;;5076641;28;20616;-81
2022/07/30 04:30:33;;;;;;;24.07;21.37;;;17.50;79.30;;;;;;5076902;28;20175;-82
2022/07/30 04:33:00;;;;;;;24.77;21.33;;;17.50;76.90;;;;;;5077184;28;20172;-83
2022/07/30 04:35:30;;;;;;;25.77;20.87;;;17.40;77.40;;;;;;5095084;28;20203;-86
2022/07/30 04:37:56;;;;;;;24.23;21.63;;;17.40;78.00;;;;;;5076333;28;20172;-86
2022/07/30 04:40:22;;;;;;;29.90;21.47;;;17.50;78.10;;;;;;5095625;28;20517;-83
2022/07/30 04:42:48;;;;;;;26.20;19.80;;;17.60;79.00;;;;;;5081725;28;20175;-84
2022/07/30 04:45:14;;;;;;;22.97;19.33;;;17.60;78.70;;;;;;5084242;28;20199;-86
2022/07/30 04:47:39;;;;;;;20.07;17.17;;;17.60;79.80;;;;;;5080232;28;20260;-85
2022/07/30 04:50:11;;;;;;;22.53;16.43;;;17.60;79.60;;;;;;5075279;28;20662;-84
2022/07/30 04:52:37;;;;;;;18.33;15.20;;;17.70;77.40;;;;;;5093245;28;20664;-82
2022/07/30 04:55:06;;;;;;;20.17;15.30;;;17.80;74.60;;;;;;5075702;28;20196;-85
2022/07/30 04:57:35;;;;;;;16.77;14.77;;;17.90;70.60;;;;;;5076104;28;20639;-82
2022/07/30 05:00:02;;;;;;;20.97;14.83;;;18.00;64.50;;;;;;5075215;28;20263;-85
2022/07/30 05:02:31;;;;;;;18.97;15.00;;;18.20;61.20;;;;;;5075660;28;20197;-84
2022/07/30 05:04:59;;;;;;;21.37;14.37;;;18.30;57.30;;;;;;5094119;28;20176;-85
2022/07/30 05:07:25;;;;;;;17.43;13.33;;;18.30;50.60;;;;;;5075517;28;20192;-84
2022/07/30 05:09:51;;;;;;;14.80;13.17;;;18.50;48.60;;;;;;5078053;28;20183;-81
2022/07/30 05:12:17;;;;;;;16.80;14.53;;;18.60;44.00;;;;;;5098178;28;20163;-82
2022/07/30 05:14:43;;;;;;;17.73;13.67;;;18.60;39.80;;;;;;5100292;28;20164;-82
2022/07/30 05:17:10;;;;;;;17.80;13.83;;;18.60;39.20;;;;;;5100301;28;20157;-82
2022/07/30 05:19:38;;;;;;;15.73;13.87;;;18.60;38.60;;;;;;5095828;28;20276;-82
2022/07/30 05:22:07;;;;;;;16.37;13.63;;;18.60;38.10;;;;;;5098190;28;20173;-84
2022/07/30 05:24:35;;;;;;;16.40;13.37;;;18.60;37.20;;;;;;5077145;28;20168;-86
2022/07/30 05:27:00;;;;;;;14.87;12.87;;;18.70;38.40;;;;;;5075359;28;20755;-82
2022/07/30 05:29:26;;;;;;;16.70;13.33;;;18.60;38.40;;;;;;5095839;28;20180;-83
2022/07/30 05:31:52;;;;;;;16.00;14.20;;;18.90;34.40;;;;;;5108698;28;20201;-83
2022/07/30 05:34:17;;;;;;;17.90;14.47;;;19.00;30.60;;;;;;5120766;28;20186;-81
2022/07/30 05:36:44;;;;;;;18.07;14.57;;;19.20;26.90;;;;;;5100128;28;20212;-80
2022/07/30 05:39:10;;;;;;;19.70;14.67;;;19.40;21.70;;;;;;5110232;28;20192;-84
2022/07/30 05:41:39;;;;;;;17.20;14.57;;;19.50;15.70;;;;;;5079275;28;20537;-82
2022/07/30 05:44:05;;;;;;;17.60;14.40;;;19.50;17.00;;;;;;5078699;28;20236;-86
2022/07/30 05:46:31;;;;;;;19.10;14.57;;;19.70;12.60;;;;;;5095997;28;20168;-83
2022/07/30 05:48:56;;;;;;;17.00;14.57;;;19.70;9.50;;;;;;5097043;28;20169;-83
2022/07/30 05:51:22;;;;;;;17.97;13.17;;;19.80;6.60;;;;;;5078504;28;20181;-81
2022/07/30 05:53:48;;;;;;;19.03;14.67;;;19.90;3.30;;;;;;5078555;28;20236;-86
2022/07/30 05:56:14;;;;;;;18.83;14.23;;;20.00;1.00;;;;;;5096538;28;20297;-86
2022/07/30 05:58:39;;;;;;;17.33;14.53;;;20.00;1.00;;;;;;5095287;28;20256;-82
2022/07/30 06:01:05;;;;;;;17.17;13.60;;;20.00;1.00;;;;;;5078552;28;20705;-85
2022/07/30 06:03:31;;;;;;;18.03;14.53;;;20.00;1.00;;;;;;5078615;28;20182;-83
2022/07/30 06:05:57;;;;;;;17.67;13.63;;;20.00;1.00;;;;;;5110880;28;20179;-80
2022/07/30 06:08:22;;;;;;;19.13;13.90;;;19.80;1.00;;;;;;5103250;28;20183;-82
2022/07/30 06:10:50;;;;;;;14.43;12.90;;;19.80;8.80;;;;;;5102392;28;20162;-84
2022/07/30 06:13:16;;;;;;;16.40;13.37;;;19.90;9.30;;;;;;5102510;28;20180;-83
2022/07/30 06:15:41;;;;;;;16.03;13.80;;;20.00;6.00;;;;;;5119194;28;20212;-85
2022/07/30 06:18:10;;;;;;;15.33;13.70;;;20.10;1.40;;;;;;5119103;28;20178;-83
2022/07/30 06:21:13;;;;;;;18.40;14.20;;;20.20;1.00;;;;;;5113973;28;20171;-85
2022/07/30 06:27:01;;;;;;;16.83;13.40;;;20.30;1.00;;;;;;5097072;28;20242;-82
2022/07/30 06:29:27;;;;;;;16.77;13.87;;;20.30;1.00;;;;;;5096641;28;20643;-87
2022/07/30 06:31:53;;;;;;;14.57;12.83;;;20.50;1.00;;;;;;5077257;28;20181;-86
2022/07/30 06:34:19;;;;;;;14.77;12.83;;;20.60;1.00;;;;;;5077133;28;20175;-85
2022/07/30 06:36:45;;;;;;;16.57;12.00;;;20.80;1.00;;;;;;5096474;28;20210;-87
2022/07/30 06:39:11;;;;;;;14.70;10.87;;;20.90;1.00;;;;;;5079805;28;20166;-86
2022/07/30 06:41:37;;;;;;;13.60;9.63;;;20.70;1.00;;;;;;5095193;28;20680;-86
2022/07/30 06:44:03;;;;;;;11.77;8.10;;;20.60;1.00;;;;;;5075745;28;20183;-86
2022/07/30 06:46:29;;;;;;;17.83;9.30;;;20.30;1.00;;;;;;5081056;28;20183;-85
2022/07/30 06:48:55;;;;;;;13.80;8.10;;;19.80;1.00;;;;;;5081337;28;20536;-85
2022/07/30 06:51:21;;;;;;;9.10;7.43;;;19.70;1.00;;;;;;5079246;28;20170;-86
2022/07/30 06:53:47;;;;;;;10.27;7.43;;;19.70;1.00;;;;;;5078224;28;20236;-88
2022/07/30 06:56:13;;;;;;;8.37;6.43;;;19.90;1.00;;;;;;5078949;28;20201;-87
2022/07/30 06:58:38;;;;;;;11.73;6.37;;;19.80;1.00;;;;;;5091112;28;20203;-83
2022/07/30 07:01:04;;;;;;;8.53;7.00;;;19.70;1.00;;;;;;5112335;28;20186;-86
2022/07/30 07:03:30;;;;;;;11.10;7.23;;;19.70;1.00;;;;;;5082764;28;20172;-86
2022/07/30 07:05:56;;;;;;;8.90;6.13;;;19.60;1.00;;;;;;5100169;28;20207;-87
2022/07/30 07:08:23;;;;;;;11.40;6.00;;;19.70;1.00;;;;;;5105452;28;20161;-83
2022/07/30 07:10:49;;;;;;;9.73;6.93;;;19.70;1.00;;;;;;5106147;28;20170;-83
2022/07/30 07:13:15;;;;;;;11.47;6.07;;;19.80;1.00;;;;;;5089544;28;20177;-84
2022/07/30 07:15:42;;;;;;;8.73;5.60;;;19.80;1.00;;;;;;5083134;28;20220;-86
2022/07/30 07:18:08;;;;;;;9.67;5.67;;;20.00;1.00;;;;;;5101010;28;20181;-85
2022/07/30 07:20:35;;;;;;;9.17;6.13;;;20.30;1.00;;;;;;5079330;28;20178;-83
2022/07/30 07:23:01;;;;;;;9.27;6.33;;;20.40;1.00;;;;;;5079887;28;20196;-83
2022/07/30 07:25:27;;;;;;;10.63;6.47;;;20.50;1.00;;;;;;5097151;28;20331;-86
2022/07/30 07:27:52;;;;;;;7.47;4.37;;;20.60;1.00;;;;;;5096569;28;20165;-83
2022/07/30 07:30:18;;;;;;;7.03;4.43;;;20.60;1.00;;;;;;5079100;28;20267;-82
2022/07/30 07:32:44;;;;;;;6.33;3.93;;;20.70;1.00;;;;;;5078155;28;20171;-84
2022/07/30 07:35:12;;;;;;;6.43;3.60;;;20.90;1.00;;;;;;5095365;28;20260;-86
2022/07/30 07:37:38;;;;;;;4.90;2.80;;;20.90;1.00;;;;;;5097098;28;20254;-85
2022/07/30 07:40:04;;;;;;;6.50;3.40;;;20.90;1.00;;;;;;5091027;28;20167;-85
2022/07/30 07:42:30;;;;;;;5.90;3.20;;;20.60;1.00;;;;;;5090991;28;20177;-86
2022/07/30 07:44:58;;;;;;;5.50;2.90;;;20.60;1.00;;;;;;5105896;28;20618;-85
2022/07/30 07:47:23;;;;;;;6.47;2.70;;;20.70;1.00;;;;;;5078134;28;20175;-82
2022/07/30 07:49:55;;;;;;;6.03;2.50;;;20.80;1.00;;;;;;5079959;28;20174;-84
2022/07/30 07:52:20;;;;;;;3.63;2.00;;;21.00;1.00;;;;;;5096375;28;20197;-85
2022/07/30 07:54:46;;;;;;;3.80;2.20;;;21.20;99.90;;;;;;5078592;28;20175;-85
2022/07/30 07:57:12;;;;;;;7.30;2.50;;;21.10;99.90;;;;;;5078127;28;20175;-85
2022/07/30 07:59:37;;;;;;;4.00;2.23;;;21.30;99.90;;;;;;5073455;28;20209;-85
2022/07/30 08:02:03;;;;;;;4.53;2.70;;;21.30;99.90;;;;;;5087764;28;20183;-86
2022/07/30 08:04:29;;;;;;;3.53;2.00;;;21.40;99.90;;;;;;5078909;28;20228;-85
2022/07/30 08:06:55;;;;;;;4.73;2.00;;;21.60;99.90;;;;;;5075858;28;20193;-84
2022/07/30 08:09:23;;;;;;;4.67;2.63;;;21.60;99.90;;;;;;5087617;28;20210;-88
2022/07/30 08:11:52;;;;;;;6.07;1.97;;;21.40;99.90;;;;;;5083482;28;20175;-87
2022/07/30 08:14:18;;;;;;;5.70;2.23;;;21.50;99.90;;;;;;5066435;28;20628;-89
2022/07/30 08:16:43;;;;;;;4.70;2.00;;;21.60;99.90;;;;;;5084641;28;20224;-87
2022/07/30 08:19:09;;;;;;;3.67;2.10;;;21.80;99.90;;;;;;5081385;28;20222;-87
2022/07/30 08:21:35;;;;;;;5.03;2.33;;;21.80;99.90;;;;;;5067983;28;20161;-85
2022/07/30 08:24:00;;;;;;;5.03;2.30;;;21.70;99.90;;;;;;5080365;28;20176;-84
2022/07/30 08:26:26;;;;;;;6.43;3.83;;;21.90;99.90;;;;;;5096675;28;20165;-89
2022/07/30 08:28:56;;;;;;;4.40;2.43;;;22.20;99.90;;;;;;5092512;28;20173;-87
2022/07/30 08:31:26;;;;;;;4.60;2.07;;;22.50;1.00;;;;;;5068509;28;20169;-85
2022/07/30 08:33:53;;;;;;;5.33;2.17;;;22.80;1.00;;;;;;5044824;28;20171;-89
2022/07/30 08:36:19;;;;;;;4.73;1.70;;;23.00;99.90;;;;;;5062745;28;20218;-87
2022/07/30 08:38:48;;;;;;;4.53;2.10;;;22.90;99.90;;;;;;5051889;28;20179;-90
2022/07/30 08:41:19;;;;;;;4.10;1.77;;;22.80;1.00;;;;;;5043881;28;20172;-89
2022/07/30 08:43:46;;;;;;;3.33;1.60;;;22.50;99.90;;;;;;5040685;28;20254;-88
2022/07/30 08:46:13;;;;;;;2.47;1.43;;;22.50;1.00;;;;;;5057536;28;20170;-87
2022/07/30 08:48:41;;;;;;;5.43;2.10;;;22.50;4.30;;;;;;5055649;28;20162;-85
2022/07/30 08:51:08;;;;;;;4.33;1.80;;;22.70;99.90;;;;;;5037948;28;20186;-88
2022/07/30 08:53:34;;;;;;;5.47;4.20;;;22.90;99.90;;;;;;5058337;28;20254;-89
2022/07/30 08:56:02;;;;;;;6.47;4.90;;;23.20;99.90;;;;;;5059081;28;20287;-87
2022/07/30 08:58:30;;;;;;;10.07;2.87;;;23.60;99.90;;;;;;5042201;28;20177;-87
2022/07/30 09:00:56;;;;;;;5.43;2.10;;;23.90;1.00;;;;;;5057601;28;20175;-89
2022/07/30 09:03:23;;;;;;;5.13;1.73;;;24.20;1.00;;;;;;5055258;28;20231;-89
2022/07/30 09:05:49;;;;;;;3.30;1.80;;;24.20;99.90;;;;;;5038343;28;20237;-89
2022/07/30 09:08:15;;;;;;;4.63;2.03;;;24.30;1.00;;;;;;5058318;28;20208;-89
2022/07/30 09:10:42;;;;;;;7.83;1.90;;;24.40;99.90;;;;;;5041956;28;20165;-90
2022/07/30 09:13:30;;;;;;;5.33;2.20;;;24.60;1.00;;;;;;5043120;28;20234;-88
2022/07/30 09:15:57;;;;;;;4.90;2.13;;;24.80;1.00;;;;;;5058227;28;20726;-84
2022/07/30 09:18:31;;;;;;;4.43;1.90;;;24.90;1.00;;;;;;5042798;28;20227;-85
2022/07/30 09:20:59;;;;;;;5.57;2.03;;;25.00;99.90;;;;;;5042266;28;20169;-89
2022/07/30 09:23:29;;;;;;;5.40;1.90;;;25.10;1.00;;;;;;5063033;28;20698;-90
2022/07/30 09:25:58;;;;;;;4.00;2.00;;;24.80;99.90;;;;;;5061978;28;20195;-92
2022/07/30 09:28:32;;;;;;;3.77;2.00;;;25.00;99.90;;;;;;5046481;28;20200;-92
2022/07/30 09:30:59;;;;;;;7.17;2.20;;;25.00;99.90;;;;;;5046504;28;20590;-90
2022/07/30 09:33:38;;;;;;;4.07;1.97;;;24.80;1.00;;;;;;5059599;28;20199;-90
2022/07/30 09:36:13;;;;;;;3.47;1.57;;;24.90;99.90;;;;;;5047358;28;20208;-88
2022/07/30 09:38:50;;;;;;;4.07;1.80;;;25.10;1.00;;;;;;5065740;28;20192;-91
2022/07/30 09:41:21;;;;;;;5.10;2.00;;;25.20;1.00;;;;;;5046777;28;20184;-87
2022/07/30 09:43:50;;;;;;;4.63;1.97;;;25.20;1.00;;;;;;5044346;28;20188;-93
2022/07/30 09:46:16;;;;;;;3.40;2.10;;;25.00;1.00;;;;;;5064790;28;20727;-93
2022/07/30 09:48:45;;;;;;;3.97;2.00;;;25.00;1.00;;;;;;5072162;28;20184;-92
2022/07/30 09:51:16;;;;;;;4.73;2.03;;;25.10;99.90;;;;;;5077837;28;20250;-92
2022/07/30 09:54:00;;;;;;;5.67;2.13;;;25.20;99.90;;;;;;5041262;28;20177;-91
2022/07/30 09:56:31;;;;;;;4.80;2.10;;;25.40;34.50;;;;;;5033912;28;20270;-90
2022/07/30 09:58:57;;;;;;;3.40;1.90;;;25.70;1.00;;;;;;5083598;28;20179;-90
2022/07/30 10:01:22;;;;;;;4.17;1.80;;;25.60;1.00;;;;;;5079566;28;20230;-92
2022/07/30 10:03:48;;;;;;;3.83;2.10;;;25.50;1.00;;;;;;5071806;28;20492;-87
2022/07/30 10:06:14;;;;;;;5.53;2.10;;;25.50;1.00;;;;;;5100164;28;20181;-82
2022/07/30 10:08:50;;;;;;;6.70;2.50;;;25.60;1.00;;;;;;5099822;28;20243;-90
2022/07/30 10:11:25;;;;;;;4.33;1.90;;;25.60;1.00;;;;;;5082291;28;20174;-87
2022/07/30 10:13:54;;;;;;;4.17;1.83;;;25.70;99.90;;;;;;5098696;28;20184;-86
2022/07/30 10:16:25;;;;;;;4.37;2.20;;;25.80;99.90;;;;;;5100500;28;20210;-84
2022/07/30 10:22:14;;;;;;;5.93;1.90;;;26.30;99.90;;;;;;5099109;28;20163;-82
2022/07/30 10:25:27;;;;;;;5.40;2.17;;;26.50;99.90;;;;;;5080095;28;20153;-84
2022/07/30 10:27:56;;;;;;;5.93;2.33;;;25.90;99.90;;;;;;5075435;28;20624;-82
2022/07/30 10:30:22;;;;;;;4.03;2.57;;;26.20;99.90;;;;;;5067068;28;20268;-85
2022/07/30 10:32:49;;;;;;;5.77;2.10;;;26.30;99.90;;;;;;5068701;28;20548;-89
2022/07/30 10:35:15;;;;;;;5.40;2.27;;;26.20;99.90;;;;;;5059078;28;20212;-87
2022/07/30 10:37:46;;;;;;;5.87;2.13;;;26.20;99.90;;;;;;5082116;28;20173;-87
2022/07/30 10:40:28;;;;;;;4.50;2.30;;;26.00;99.90;;;;;;5038231;28;20655;-90
2022/07/30 10:43:17;;;;;;;4.37;1.83;;;26.00;1.00;;;;;;5065877;28;20235;-87
2022/07/30 10:46:25;;;;;;;6.23;2.37;;;25.90;1.00;;;;;;5071237;28;20171;-90
2022/07/30 10:48:51;;;;;;;5.70;2.00;;;25.50;1.00;;;;;;5086555;28;20171;-88
2022/07/30 10:51:17;;;;;;;5.73;2.30;;;25.50;1.00;;;;;;5048361;28;20181;-87
2022/07/30 10:53:45;;;;;;;6.00;2.47;;;25.60;8.30;;;;;;5084763;28;20171;-87
2022/07/30 10:56:20;;;;;;;6.30;2.27;;;25.80;27.70;;;;;;5080111;28;20280;-82
2022/07/30 10:59:07;;;;;;;7.00;1.93;;;26.00;1.00;;;;;;5080749;28;20241;-85
2022/07/30 11:02:15;;;;;;;5.07;2.10;;;26.30;1.00;;;;;;5088436;28;20160;-88
2022/07/30 11:04:44;;;;;;;5.00;2.10;;;26.50;1.00;;;;;;5073511;28;20212;-84
2022/07/30 11:07:28;;;;;;;4.40;2.00;;;26.60;99.90;;;;;;5072516;28;20184;-85
2022/07/30 11:09:56;;;;;;;6.10;2.13;;;26.50;99.90;;;;;;5082475;28;20663;-87
2022/07/30 11:12:46;;;;;;;4.60;2.13;;;26.50;99.90;;;;;;5066992;28;20168;-85
2022/07/30 11:15:15;;;;;;;4.20;1.93;;;26.30;99.90;;;;;;5061416;28;20212;-86
2022/07/30 11:18:01;;;;;;;4.70;2.10;;;26.50;99.90;;;;;;5091699;28;20177;-81
2022/07/30 11:21:02;;;;;;;5.57;2.20;;;26.70;46.50;;;;;;5093132;28;20161;-83
2022/07/30 11:23:28;;;;;;;3.97;2.17;;;26.70;1.00;;;;;;5064759;28;20205;-84
2022/07/30 11:25:54;;;;;;;6.63;2.60;;;26.40;1.00;;;;;;5063782;28;20210;-86
2022/07/30 11:28:37;;;;;;;4.07;1.93;;;26.40;1.00;;;;;;5076230;28;20220;-87
2022/07/30 11:31:23;;;;;;;4.20;1.83;;;26.40;28.20;;;;;;5047129;28;20714;-84
2022/07/30 11:33:50;;;;;;;2.53;1.83;;;26.50;1.00;;;;;;5076323;28;20176;-87
2022/07/30 11:36:16;;;;;;;5.23;2.37;;;26.60;1.00;;;;;;5067482;28;20219;-84
2022/07/30 11:38:58;;;;;;;4.67;2.07;;;26.60;1.00;;;;;;5055845;28;20191;-85
2022/07/30 11:41:24;;;;;;;5.07;2.20;;;26.50;1.00;;;;;;5068602;28;20280;-86
2022/07/30 11:44:26;;;;;;;4.97;1.93;;;26.70;1.00;;;;;;5077770;28;20212;-86
2022/07/30 11:46:53;;;;;;;3.70;1.80;;;27.00;1.00;;;;;;5074702;28;20211;-87
2022/07/30 11:49:21;;;;;;;4.37;1.77;;;27.00;1.00;;;;;;5053001;28;20763;-84
2022/07/30 11:51:49;;;;;;;3.47;1.70;;;27.10;1.00;;;;;;5062482;28;20191;-87
2022/07/30 11:54:17;;;;;;;3.10;1.80;;;27.00;99.90;;;;;;5076081;28;20185;-86
2022/07/30 11:56:58;;;;;;;7.03;1.73;;;26.80;99.90;;;;;;5046120;28;20296;-86
2022/07/30 11:59:25;;;;;;;6.37;1.70;;;26.90;99.90;;;;;;5041819;28;20176;-88
2022/07/30 12:01:55;;;;;;;4.97;1.60;;;27.10;99.90;;;;;;5040590;28;20173;-83
2022/07/30 12:04:26;;;;;;;3.97;1.57;;;27.50;99.90;;;;;;5057608;28;20184;-86
2022/07/30 12:06:52;;;;;;;5.07;1.70;;;27.50;99.90;;;;;;5039511;28;20867;-86
2022/07/30 12:09:28;;;;;;;4.57;1.73;;;27.80;99.90;;;;;;5059656;28;20173;-84
2022/07/30 12:11:54;;;;;;;3.67;1.70;;;28.00;99.90;;;;;;5057650;28;20159;-87
2022/07/30 12:14:22;;;;;;;4.70;1.70;;;28.10;96.80;;;;;;5040346;28;20247;-85
2022/07/30 12:16:51;;;;;;;4.20;1.77;;;28.10;51.80;;;;;;5058221;28;20213;-84
2022/07/30 12:19:17;;;;;;;5.05;1.58;;;28.00;68.50;;;;;;5060063;28;20367;-85
2022/07/30 12:21:43;;;;;;;4.82;1.70;;;27.30;99.90;;;;;;5057216;28;20183;-85
2022/07/30 12:24:10;;;;;;;5.10;1.77;;;27.10;99.90;;;;;;5040481;28;20191;-85
2022/07/30 12:26:36;;;;;;;2.83;1.80;;;27.20;99.90;;;;;;5064588;28;20172;-82
2022/07/30 12:29:17;;;;;;;3.37;1.90;;;27.30;99.90;;;;;;5074430;28;20181;-85
2022/07/30 12:31:44;;;;;;;4.93;1.70;;;27.50;99.90;;;;;;5069837;28;20191;-84
2022/07/30 12:34:29;;;;;;;4.73;1.60;;;27.50;99.90;;;;;;5060737;28;20205;-86
2022/07/30 12:37:07;;;;;;;3.27;1.50;;;27.40;33.50;;;;;;5041484;28;20204;-85
2022/07/30 12:39:32;;;;;;;3.47;1.60;;;27.00;53.00;;;;;;5061096;28;20156;-84
2022/07/30 12:41:58;;;;;;;5.73;1.70;;;27.00;99.90;;;;;;5041214;28;20177;-85
2022/07/30 12:44:39;;;;;;;4.97;1.30;;;26.80;99.90;;;;;;5044045;28;20681;-86
2022/07/30 12:47:25;;;;;;;5.00;1.50;;;27.10;99.90;;;;;;5062862;28;20172;-86
2022/07/30 12:49:56;;;;;;;4.13;1.60;;;27.10;99.90;;;;;;5033758;28;20275;-85
2022/07/30 12:52:34;;;;;;;4.97;2.03;;;27.40;99.90;;;;;;5045138;28;20174;-86
2022/07/30 12:55:01;;;;;;;2.77;1.40;;;27.70;51.20;;;;;;5062377;28;20180;-85
2022/07/30 12:57:47;;;;;;;3.20;1.70;;;27.90;1.00;;;;;;5043862;28;20169;-85
2022/07/30 13:00:19;;;;;;;3.63;1.70;;;27.90;1.00;;;;;;5063082;28;20260;-86